NFSU/SUV METAR and TAF weather

Enter ICAO airport designator
Station Type Date Time Source
NFSU METAR 2015/01/31 09:00 UTC NOAA

NFSU 310900Z 21009KT 9999 FEW013 BKN080 30/20 Q1016


Station Type Date Time Source
NFSU Decoded METAR 2015/01/31 09:00 UTC NOAA

Station name not available
Jan 31, 2015 - 04:00 AM EST / 2015.01.31 0900 UTC
Wind: from the SSW (210 degrees) at 10 MPH (9 KT):0
Visibility: greater than 7 mile(s):0
Sky conditions: mostly cloudy
Temperature: 86 F (30 C)
Dew Point: 68 F (20 C)
Relative Humidity: 55%
Pressure (altimeter): 30.00 in. Hg (1016 hPa)
ob: NFSU 310900Z 21009KT 9999 FEW013 BKN080 30/20 Q1016
cycle: 9

Station Type Date Time Source
NFSU TAF UTC NOAA

Error!


Example: see airport list